Time;durP1;ratioP1;P1;durP2;ratioP2;P2;SDS_P1;SDS_P2;PMS_P1;PMS_P2;Temp;Humidity;BMP_temperature;BMP_pressure;BME280_temperature;BME280_humidity;BME280_pressure;Samples;Min_cycle;Max_cycle;Signal;HPM_P1;HPM_P2
2022/11/20 00:00:25;;;;;;;8.87;8.27;;;;;;;17.21;63.39;92147.78;5110497;28;20208;-70
2022/11/20 00:02:50;;;;;;;9.00;8.23;;;;;;;17.18;63.82;92117.53;5108859;28;20223;-69
2022/11/20 00:05:16;;;;;;;8.57;8.17;;;;;;;17.18;63.68;92143.91;5110075;28;20256;-69
2022/11/20 00:07:41;;;;;;;8.60;8.20;;;;;;;17.12;63.60;92139.22;5109595;28;20206;-69
2022/11/20 00:10:07;;;;;;;8.60;8.20;;;;;;;17.19;63.82;92166.59;5110206;28;20261;-71
2022/11/20 00:12:32;;;;;;;8.90;8.40;;;;;;;17.20;63.67;92160.19;5106088;28;20837;-69
2022/11/20 00:14:58;;;;;;;8.70;8.30;;;;;;;17.28;63.51;92145.34;5108316;28;20260;-69
2022/11/20 00:17:23;;;;;;;10.00;9.40;;;;;;;17.26;63.19;92129.09;5110162;28;20275;-71
2022/11/20 00:19:48;;;;;;;8.50;7.90;;;;;;;17.31;63.11;92136.78;5103918;28;20228;-70
2022/11/20 00:22:14;;;;;;;8.53;7.93;;;;;;;17.17;64.35;92131.84;5088997;28;20190;-70
2022/11/20 00:24:39;;;;;;;7.87;7.57;;;;;;;17.15;64.33;92096.34;5095590;28;20216;-70
2022/11/20 00:27:05;;;;;;;8.47;7.93;;;;;;;17.26;63.16;92087.63;5110364;28;20211;-70
2022/11/20 00:29:30;;;;;;;9.10;8.70;;;;;;;17.30;63.38;92099.09;5110739;28;20227;-70
2022/11/20 00:31:55;;;;;;;9.27;8.80;;;;;;;17.19;63.60;92110.41;5108070;28;20197;-70
2022/11/20 00:34:20;;;;;;;9.30;8.87;;;;;;;17.05;63.43;92099.41;5110387;28;20187;-71
2022/11/20 00:36:46;;;;;;;8.53;8.17;;;;;;;17.08;63.58;92104.81;5111627;28;20235;-70
2022/11/20 00:39:11;;;;;;;7.90;7.57;;;;;;;17.09;63.08;92119.53;5109537;28;20223;-70
2022/11/20 00:41:37;;;;;;;8.77;8.30;;;;;;;17.03;63.46;92094.47;5109554;28;20197;-69
2022/11/20 00:44:02;;;;;;;8.27;7.77;;;;;;;17.23;61.84;92096.22;5111537;28;20196;-71
2022/11/20 00:46:28;;;;;;;8.87;8.40;;;;;;;17.16;62.40;92125.03;5105241;28;20216;-70
2022/11/20 00:48:54;;;;;;;8.27;7.60;;;;;;;17.21;62.21;92153.81;5111050;28;20192;-70
2022/11/20 00:51:23;;;;;;;8.23;7.83;;;;;;;17.24;61.18;92126.78;5109552;28;20223;-70
2022/11/20 00:53:49;;;;;;;8.60;8.07;;;;;;;17.21;61.33;92156.44;5109286;28;20197;-70
2022/11/20 00:56:16;;;;;;;8.30;7.90;;;;;;;17.28;61.18;92156.69;5107798;28;20281;-71
2022/11/20 00:58:44;;;;;;;9.07;8.63;;;;;;;17.42;60.05;92140.50;5110926;28;20199;-70
2022/11/20 01:01:09;;;;;;;9.10;8.47;;;;;;;17.34;60.58;92150.09;5091859;28;20236;-70
2022/11/20 01:03:38;;;;;;;8.50;8.10;;;;;;;17.27;61.47;92147.25;5090759;28;20173;-71
2022/11/20 01:06:06;;;;;;;8.40;8.00;;;;;;;17.28;61.68;92151.41;5105159;28;20238;-71
2022/11/20 01:08:34;;;;;;;8.63;8.03;;;;;;;17.21;61.94;92135.34;5109858;28;20192;-71
2022/11/20 01:11:01;;;;;;;8.30;7.90;;;;;;;17.27;61.97;92136.69;5108791;28;20262;-71
2022/11/20 01:13:39;;;;;;;8.17;7.87;;;;;;;17.28;60.97;92101.28;5109886;28;20192;-70
2022/11/20 01:16:09;;;;;;;9.00;8.33;;;;;;;17.31;61.61;92156.03;5108179;28;20242;-70
2022/11/20 01:18:36;;;;;;;8.63;8.13;;;;;;;17.24;61.92;92158.44;5110510;28;20271;-70
2022/11/20 01:21:23;;;;;;;8.80;8.30;;;;;;;17.34;61.56;92155.38;5110195;28;20228;-71
2022/11/20 01:23:50;;;;;;;7.90;7.50;;;;;;;17.16;62.92;92125.03;5109387;28;20188;-70
2022/11/20 01:26:23;;;;;;;7.90;7.60;;;;;;;17.23;62.05;92112.03;5108911;28;20226;-71
2022/11/20 01:28:49;;;;;;;7.90;7.60;;;;;;;17.08;62.75;92117.22;5108684;28;20221;-70
2022/11/20 01:31:18;;;;;;;8.17;7.87;;;;;;;17.11;62.84;92093.59;5109862;28;20222;-71
2022/11/20 01:33:45;;;;;;;8.13;7.67;;;;;;;17.17;62.17;92084.34;5108793;28;20241;-70
2022/11/20 01:36:12;;;;;;;7.57;7.07;;;;;;;17.09;62.62;92084.47;5108100;28;20231;-70
2022/11/20 01:38:37;;;;;;;8.30;7.90;;;;;;;17.08;62.75;92106.66;5107837;28;20239;-71
2022/11/20 01:41:03;;;;;;;8.23;7.83;;;;;;;17.10;62.11;92063.06;5108856;28;20216;-70
2022/11/20 01:43:29;;;;;;;8.67;8.27;;;;;;;17.19;61.20;92087.44;5109014;28;20180;-70
2022/11/20 01:46:17;;;;;;;7.70;7.30;;;;;;;17.29;61.14;92065.13;5109408;28;20291;-71
2022/11/20 01:49:07;;;;;;;9.00;8.20;;;;;;;17.20;61.81;92067.09;5110900;28;20214;-71
2022/11/20 01:51:39;;;;;;;7.37;7.07;;;;;;;17.24;60.93;92052.91;5108286;28;20217;-71
2022/11/20 01:54:08;;;;;;;8.10;7.80;;;;;;;17.09;62.08;92082.59;5107506;28;20210;-70
2022/11/20 01:56:38;;;;;;;8.70;8.07;;;;;;;17.00;62.35;92099.63;5109754;28;20216;-70
2022/11/20 01:59:07;;;;;;;8.30;7.90;;;;;;;17.09;62.46;92090.50;5108778;28;20192;-71
2022/11/20 02:01:33;;;;;;;8.20;7.90;;;;;;;17.11;61.69;92085.69;5108540;28;20212;-71
2022/11/20 02:04:00;;;;;;;8.40;7.90;;;;;;;17.07;62.07;92082.19;5108659;28;20203;-70
2022/11/20 02:06:28;;;;;;;8.20;7.80;;;;;;;17.20;60.49;92077.63;5089513;28;20223;-71
2022/11/20 02:08:55;;;;;;;7.87;7.47;;;;;;;17.11;61.38;92103.38;5088078;28;20187;-71
2022/11/20 02:11:20;;;;;;;7.90;7.60;;;;;;;16.97;61.81;92095.00;5097137;28;20228;-71
2022/11/20 02:13:47;;;;;;;8.53;8.13;;;;;;;16.94;62.36;92111.50;5097470;28;20217;-70
2022/11/20 02:16:35;;;;;;;7.93;7.57;;;;;;;16.82;62.67;92112.25;5099057;28;20231;-71
2022/11/20 02:19:03;;;;;;;8.53;7.93;;;;;;;16.85;62.95;92108.19;5101185;28;20243;-71
2022/11/20 02:21:50;;;;;;;8.10;7.80;;;;;;;16.82;62.10;92103.56;5089449;28;20234;-70
2022/11/20 02:24:18;;;;;;;8.17;7.67;;;;;;;16.89;62.38;92112.47;5088110;28;20197;-71
2022/11/20 02:26:53;;;;;;;7.83;7.47;;;;;;;17.04;61.11;92124.25;5107633;28;20184;-70
2022/11/20 02:29:30;;;;;;;8.00;7.70;;;;;;;17.02;61.45;92114.03;5107984;28;20404;-71
2022/11/20 02:31:58;;;;;;;8.07;7.77;;;;;;;16.89;61.84;92096.66;5106631;28;20191;-71
2022/11/20 02:34:24;;;;;;;8.67;8.37;;;;;;;16.93;62.03;92120.50;5108766;28;20179;-71
2022/11/20 02:36:51;;;;;;;8.70;8.30;;;;;;;17.07;61.11;92113.03;5107524;28;20242;-71
2022/11/20 02:39:18;;;;;;;8.97;8.50;;;;;;;16.97;62.12;92106.34;5105825;28;20189;-70
2022/11/20 02:41:44;;;;;;;8.57;8.07;;;;;;;16.73;63.36;92110.81;5108436;28;20195;-70
2022/11/20 02:44:09;;;;;;;8.00;7.70;;;;;;;16.70;63.96;92122.78;5108011;28;20186;-70
2022/11/20 02:46:35;;;;;;;8.97;8.47;;;;;;;16.83;63.19;92126.19;5089129;28;20212;-70
2022/11/20 02:49:04;;;;;;;9.13;8.53;;;;;;;16.80;64.20;92134.78;5089058;28;20744;-70
2022/11/20 02:51:30;;;;;;;7.37;7.03;;;;;;;17.01;64.02;92146.00;5086185;28;20233;-71
2022/11/20 02:53:55;;;;;;;8.57;8.07;;;;;;;16.86;64.52;92131.59;5088207;28;20200;-71
2022/11/20 02:56:20;;;;;;;8.50;8.07;;;;;;;16.91;64.78;92144.56;5118985;28;20243;-70
2022/11/20 02:58:46;;;;;;;8.90;8.30;;;;;;;16.71;65.85;92113.00;5086804;28;20197;-72
2022/11/20 03:01:11;;;;;;;8.40;8.00;;;;;;;16.70;65.63;92146.50;5100766;28;20208;-71
2022/11/20 03:03:37;;;;;;;8.73;8.33;;;;;;;16.86;65.01;92162.47;5108638;28;20208;-71
2022/11/20 03:06:02;;;;;;;8.87;8.30;;;;;;;16.89;64.42;92183.66;5105764;28;20227;-70
2022/11/20 03:08:28;;;;;;;9.40;8.70;;;;;;;16.88;65.05;92179.50;5105562;28;20556;-71
2022/11/20 03:10:53;;;;;;;8.13;7.57;;;;;;;16.87;65.00;92127.09;5107501;28;20234;-70
2022/11/20 03:13:18;;;;;;;8.97;8.20;;;;;;;16.96;64.68;92141.72;5106100;28;20214;-70
2022/11/20 03:15:44;;;;;;;8.60;8.20;;;;;;;16.75;65.34;92119.16;5106781;28;20222;-72
2022/11/20 03:18:09;;;;;;;7.63;7.13;;;;;;;16.72;66.07;92161.97;5107795;28;20188;-71
2022/11/20 03:20:35;;;;;;;8.07;7.67;;;;;;;16.84;65.58;92196.31;5107747;28;20224;-70
2022/11/20 03:23:01;;;;;;;8.33;7.93;;;;;;;16.85;64.81;92159.06;5106239;28;20204;-70
2022/11/20 03:25:26;;;;;;;8.40;8.10;;;;;;;16.78;65.63;92164.09;5105273;28;20215;-71
2022/11/20 03:27:51;;;;;;;8.17;7.87;;;;;;;16.57;67.42;92168.66;5107807;28;20192;-71
2022/11/20 03:30:17;;;;;;;8.23;7.83;;;;;;;16.62;66.16;92163.19;5098663;28;20225;-72
2022/11/20 03:32:43;;;;;;;8.83;8.30;;;;;;;16.68;66.04;92166.38;5088817;28;20195;-71
2022/11/20 03:35:09;;;;;;;8.00;7.60;;;;;;;16.68;66.12;92169.03;5089087;28;20240;-71
2022/11/20 03:37:34;;;;;;;7.80;7.47;;;;;;;16.65;66.55;92156.50;5099177;28;20398;-70
2022/11/20 03:39:59;;;;;;;7.93;7.57;;;;;;;16.48;67.37;92183.00;5091325;28;20220;-69
2022/11/20 03:45:09;;;;;;;8.40;7.80;;;;;;;16.51;67.25;92177.09;5095563;28;20230;-70
2022/11/20 03:47:35;;;;;;;8.57;8.20;;;;;;;16.53;67.17;92170.41;5107316;28;20255;-71
2022/11/20 03:50:00;;;;;;;8.97;8.43;;;;;;;16.59;66.64;92179.63;5105192;28;20224;-71
2022/11/20 03:52:26;;;;;;;9.07;8.57;;;;;;;16.67;65.79;92155.06;5103309;28;20779;-70
2022/11/20 03:54:51;;;;;;;9.13;8.60;;;;;;;16.54;66.22;92182.50;5107056;28;20224;-67
2022/11/20 03:57:16;;;;;;;8.57;8.17;;;;;;;16.73;65.40;92169.56;5107261;28;20224;-67
2022/11/20 03:59:42;;;;;;;8.10;7.70;;;;;;;16.68;65.60;92172.44;5105153;28;20239;-67
2022/11/20 04:02:07;;;;;;;8.93;8.40;;;;;;;16.70;65.30;92170.22;5105112;28;20260;-68
2022/11/20 04:04:33;;;;;;;7.60;7.30;;;;;;;16.61;65.64;92188.00;5104496;28;20219;-67
2022/11/20 04:06:58;;;;;;;8.03;7.73;;;;;;;16.48;66.75;92183.78;5104575;28;20203;-68
2022/11/20 04:09:23;;;;;;;8.53;8.23;;;;;;;16.43;66.83;92178.69;5106150;28;20199;-68
2022/11/20 04:11:49;;;;;;;7.77;7.27;;;;;;;16.49;65.98;92180.06;5108024;28;20206;-67
2022/11/20 04:14:15;;;;;;;8.50;8.00;;;;;;;16.40;66.62;92187.25;5110538;28;20255;-68
2022/11/20 04:16:41;;;;;;;8.47;7.90;;;;;;;16.36;66.81;92160.00;5106683;28;20245;-68
2022/11/20 04:19:11;;;;;;;7.10;6.80;;;;;;;16.32;67.49;92188.09;5110486;28;20189;-68
2022/11/20 04:21:36;;;;;;;8.03;7.63;;;;;;;16.27;67.79;92183.00;5109590;28;20208;-67
2022/11/20 04:24:02;;;;;;;8.40;8.10;;;;;;;16.39;67.84;92188.31;5110161;28;20240;-68
2022/11/20 04:26:29;;;;;;;8.40;7.80;;;;;;;16.43;67.28;92199.78;5109431;28;20226;-67
2022/11/20 04:28:54;;;;;;;7.87;7.50;;;;;;;16.52;67.32;92197.06;5108742;28;20280;-67
2022/11/20 04:31:29;;;;;;;8.27;7.97;;;;;;;16.51;67.00;92204.22;5110165;28;20224;-68
2022/11/20 04:33:55;;;;;;;8.50;7.97;;;;;;;16.45;68.08;92205.50;5109855;28;20207;-68
2022/11/20 04:36:23;;;;;;;8.97;8.53;;;;;;;16.45;67.76;92205.50;5107995;28;21015;-67
2022/11/20 04:38:59;;;;;;;7.40;7.13;;;;;;;16.30;68.64;92192.13;5109280;28;20205;-67
2022/11/20 04:41:27;;;;;;;7.97;7.67;;;;;;;16.39;68.82;92169.13;5108292;28;20239;-68
2022/11/20 04:43:59;;;;;;;7.60;7.30;;;;;;;16.22;69.27;92183.19;5109322;28;20200;-67
2022/11/20 04:46:26;;;;;;;8.20;7.90;;;;;;;16.18;69.39;92189.44;5110339;28;20492;-68
2022/11/20 04:48:51;;;;;;;8.27;7.87;;;;;;;16.06;69.77;92195.44;5112033;28;20188;-67
2022/11/20 04:51:16;;;;;;;8.10;7.80;;;;;;;16.07;69.79;92191.69;5108976;28;20249;-67
2022/11/20 04:53:42;;;;;;;7.87;7.47;;;;;;;15.89;70.26;92192.91;5110647;28;20227;-68
2022/11/20 04:56:10;;;;;;;7.70;7.13;;;;;;;16.26;67.79;92189.38;5110216;28;20239;-67
2022/11/20 04:58:35;;;;;;;9.83;9.30;;;;;;;16.14;69.68;92167.47;5110565;28;21018;-67
2022/11/20 05:01:12;;;;;;;7.90;7.50;;;;;;;16.25;69.04;92190.44;5109677;28;20224;-69
2022/11/20 05:03:41;;;;;;;8.00;7.70;;;;;;;16.20;69.64;92164.34;5107520;28;20710;-68
2022/11/20 05:06:08;;;;;;;7.10;6.90;;;;;;;16.14;69.71;92170.88;5108182;28;20246;-67
2022/11/20 05:08:34;;;;;;;8.20;7.90;;;;;;;16.09;70.04;92171.84;5110912;28;20188;-67
2022/11/20 05:11:04;;;;;;;8.93;8.27;;;;;;;15.98;70.72;92181.22;5094176;28;20354;-67
2022/11/20 05:13:30;;;;;;;8.10;7.70;;;;;;;16.04;70.21;92160.75;5090672;28;20188;-68
2022/11/20 05:15:55;;;;;;;7.70;7.20;;;;;;;15.96;71.72;92167.63;5096220;28;20255;-68
2022/11/20 05:18:20;;;;;;;9.20;8.70;;;;;;;15.88;71.41;92159.78;5099472;28;20211;-67
2022/11/20 05:20:46;;;;;;;8.30;7.90;;;;;;;15.94;71.18;92161.13;5091043;28;20221;-68
2022/11/20 05:23:11;;;;;;;7.67;7.37;;;;;;;15.91;72.80;92153.88;5090143;28;20209;-69
2022/11/20 05:25:37;;;;;;;10.20;9.63;;;;;;;15.88;73.44;92157.13;5100065;28;20282;-68
2022/11/20 05:28:02;;;;;;;8.30;7.87;;;;;;;15.92;73.00;92152.78;5109266;28;20191;-67
2022/11/20 05:30:27;;;;;;;8.40;8.00;;;;;;;15.88;72.94;92133.44;5108484;28;20222;-68
2022/11/20 05:32:53;;;;;;;7.77;7.37;;;;;;;15.76;73.60;92151.81;5108880;28;20226;-67
2022/11/20 05:35:18;;;;;;;8.37;7.97;;;;;;;15.60;74.18;92151.63;5106735;28;20216;-67
2022/11/20 05:37:43;;;;;;;8.73;8.23;;;;;;;15.69;73.48;92164.69;5108608;28;20267;-68
2022/11/20 05:40:10;;;;;;;8.00;7.67;;;;;;;15.85;72.10;92149.88;5106968;28;20224;-68
2022/11/20 05:42:35;;;;;;;8.80;8.20;;;;;;;15.78;71.84;92145.13;5110121;28;20732;-68
2022/11/20 05:45:03;;;;;;;9.43;8.93;;;;;;;15.75;72.46;92147.66;5106708;28;20217;-67
2022/11/20 05:47:33;;;;;;;9.00;8.40;;;;;;;15.99;71.24;92166.19;5107851;28;20195;-67
2022/11/20 05:49:59;;;;;;;8.60;8.10;;;;;;;15.91;71.60;92143.34;5107074;28;20224;-68
2022/11/20 05:52:24;;;;;;;7.67;7.23;;;;;;;15.91;71.20;92130.16;5106641;28;20192;-71
2022/11/20 05:54:50;;;;;;;8.10;7.70;;;;;;;15.96;71.17;92149.19;5107140;28;20274;-69
2022/11/20 05:57:16;;;;;;;7.40;7.03;;;;;;;15.91;70.42;92140.69;5105806;28;20750;-71
2022/11/20 05:59:41;;;;;;;8.67;8.23;;;;;;;15.87;71.21;92142.44;5109226;28;20328;-71
2022/11/20 06:02:06;;;;;;;7.73;7.43;;;;;;;16.08;70.63;92147.72;5109245;28;20217;-69
2022/11/20 06:04:32;;;;;;;8.23;7.77;;;;;;;16.09;69.76;92150.78;5107210;28;20231;-70
2022/11/20 06:06:57;;;;;;;8.17;7.70;;;;;;;16.26;69.11;92155.13;5108963;28;20204;-71
2022/11/20 06:09:22;;;;;;;8.63;7.93;;;;;;;15.87;69.70;92124.03;5107589;28;20203;-71
2022/11/20 06:11:48;;;;;;;8.33;7.83;;;;;;;16.11;70.05;92147.06;5108834;28;20225;-71
2022/11/20 06:14:13;;;;;;;8.60;8.20;;;;;;;16.24;68.35;92154.69;5106369;28;20276;-70
2022/11/20 06:16:38;;;;;;;7.40;7.03;;;;;;;16.17;69.79;92162.34;5108474;28;20223;-71
2022/11/20 06:19:04;;;;;;;8.43;8.03;;;;;;;16.24;68.65;92162.59;5109529;28;20205;-70
2022/11/20 06:21:29;;;;;;;9.07;8.47;;;;;;;16.19;69.34;92154.88;5106766;28;20232;-70
2022/11/20 06:23:54;;;;;;;9.40;8.70;;;;;;;16.21;69.79;92157.97;5108740;28;20195;-71
2022/11/20 06:26:26;;;;;;;9.13;8.50;;;;;;;16.40;67.86;92160.91;5108150;28;20694;-71
2022/11/20 06:28:52;;;;;;;8.33;7.93;;;;;;;16.30;68.21;92171.81;5107437;28;20187;-71
2022/11/20 06:31:20;;;;;;;8.90;8.50;;;;;;;16.33;68.57;92170.44;5105120;28;20234;-72
2022/11/20 06:33:46;;;;;;;7.50;7.10;;;;;;;16.33;69.69;92165.91;5108224;28;20192;-72
2022/11/20 06:36:13;;;;;;;8.17;7.87;;;;;;;16.36;68.75;92170.53;5105336;28;20227;-73
2022/11/20 06:38:40;;;;;;;8.70;8.30;;;;;;;16.44;68.53;92171.53;5108906;28;20260;-71
2022/11/20 06:41:07;;;;;;;7.73;7.43;;;;;;;16.56;67.14;92180.28;5089865;28;20227;-72
2022/11/20 06:43:32;;;;;;;8.47;8.03;;;;;;;16.43;65.49;92130.47;5087095;28;20204;-72
2022/11/20 06:45:59;;;;;;;8.40;7.80;;;;;;;16.72;65.43;92177.81;5094587;28;20235;-70
2022/11/20 06:48:27;;;;;;;7.57;7.27;;;;;;;16.80;64.25;92174.31;5097939;28;20194;-71
2022/11/20 06:50:52;;;;;;;9.03;8.37;;;;;;;16.89;64.26;92181.03;5088255;28;20263;-71
2022/11/20 06:53:18;;;;;;;7.17;6.87;;;;;;;17.00;63.79;92189.28;5086948;28;20192;-71
2022/11/20 06:55:44;;;;;;;7.80;7.40;;;;;;;17.13;63.53;92189.00;5086703;28;20225;-69
2022/11/20 06:58:10;;;;;;;7.97;7.33;;;;;;;17.22;62.82;92176.47;5087479;28;20192;-70
2022/11/20 07:00:35;;;;;;;7.97;7.57;;;;;;;17.36;63.12;92184.06;5084401;28;20284;-70
2022/11/20 07:03:04;;;;;;;8.90;8.40;;;;;;;17.45;62.83;92185.53;5085932;28;20249;-71
2022/11/20 07:05:30;;;;;;;8.27;7.90;;;;;;;17.50;63.16;92214.34;5093870;28;20231;-71
2022/11/20 07:07:56;;;;;;;6.97;6.77;;;;;;;17.29;62.78;92194.41;5096078;28;20184;-72
2022/11/20 07:10:21;;;;;;;7.53;7.13;;;;;;;17.25;64.24;92212.75;5095457;28;20224;-70
2022/11/20 07:12:52;;;;;;;9.13;8.53;;;;;;;17.02;64.36;92198.44;5093744;28;20909;-70
2022/11/20 07:15:18;;;;;;;8.43;7.93;;;;;;;17.01;65.68;92170.50;5096680;28;20224;-69
2022/11/20 07:17:43;;;;;;;7.50;7.03;;;;;;;17.03;64.96;92196.53;5095744;28;20212;-68
2022/11/20 07:20:09;;;;;;;8.17;7.57;;;;;;;17.00;64.66;92205.13;5098448;28;20235;-69
2022/11/20 07:22:35;;;;;;;7.90;7.57;;;;;;;16.97;65.27;92205.78;5098896;28;20306;-75
2022/11/20 07:25:01;;;;;;;8.23;7.87;;;;;;;16.77;65.41;92185.50;5092748;28;20216;-69
2022/11/20 07:27:26;;;;;;;7.80;7.47;;;;;;;16.89;65.84;92210.03;5085860;28;20248;-70
2022/11/20 07:29:52;;;;;;;8.47;7.87;;;;;;;16.91;65.31;92192.03;5091580;28;20232;-68
2022/11/20 07:32:17;;;;;;;8.17;7.77;;;;;;;16.91;66.34;92186.75;5108288;28;20184;-68
2022/11/20 07:34:42;;;;;;;7.93;7.43;;;;;;;16.92;66.05;92203.34;5106377;28;20227;-69
2022/11/20 07:37:08;;;;;;;8.33;7.67;;;;;;;16.91;66.30;92197.31;5107093;28;20231;-68
2022/11/20 07:39:33;;;;;;;8.43;8.03;;;;;;;16.73;67.05;92177.47;5106825;28;20232;-69
2022/11/20 07:41:58;;;;;;;8.43;7.67;;;;;;;16.57;67.43;92181.84;5107983;28;20184;-69
2022/11/20 07:44:24;;;;;;;9.50;8.33;;;;;;;16.68;67.50;92188.25;5107607;28;20194;-69
2022/11/20 07:46:49;;;;;;;7.97;7.17;;;;;;;16.59;68.33;92182.28;5107232;28;20210;-69
2022/11/20 07:49:14;;;;;;;8.03;7.70;;;;;;;16.63;71.46;92191.09;5111280;28;20194;-69
2022/11/20 07:51:40;;;;;;;8.63;7.70;;;;;;;16.55;72.27;92173.47;5110930;28;20192;-69
2022/11/20 07:54:05;;;;;;;7.93;7.40;;;;;;;16.26;74.82;92173.56;5110471;28;20192;-68
2022/11/20 07:56:30;;;;;;;8.67;8.00;;;;;;;16.18;75.51;92190.22;5110737;28;20225;-69
2022/11/20 07:58:56;;;;;;;8.57;7.90;;;;;;;16.22;73.85;92175.31;5110908;28;20192;-69
2022/11/20 08:01:21;;;;;;;8.23;7.83;;;;;;;16.28;78.10;92183.78;5109836;28;20238;-70
2022/11/20 08:03:46;;;;;;;9.43;8.57;;;;;;;16.16;77.26;92165.28;5107993;28;20196;-68
2022/11/20 08:06:12;;;;;;;8.37;7.80;;;;;;;16.32;76.27;92180.19;5108054;28;20283;-69
2022/11/20 08:08:39;;;;;;;8.43;7.60;;;;;;;16.14;75.32;92178.75;5110447;28;20185;-71
2022/11/20 08:16:33;;;;;;;7.80;7.20;;;;;;;16.81;69.23;92192.44;5107256;28;20218;-70
2022/11/20 08:18:58;;;;;;;8.63;8.13;;;;;;;17.13;69.44;92210.09;5108770;28;20291;-70
2022/11/20 08:21:23;;;;;;;8.57;8.07;;;;;;;17.38;65.88;92205.63;5109936;28;20232;-68
2022/11/20 08:23:49;;;;;;;8.93;8.43;;;;;;;17.14;68.88;92232.75;5109556;28;20211;-69
2022/11/20 08:26:14;;;;;;;7.73;7.33;;;;;;;17.03;67.45;92212.38;5109500;28;20230;-70
2022/11/20 08:28:40;;;;;;;8.23;7.63;;;;;;;17.19;67.48;92229.91;5107312;28;20196;-70
2022/11/20 08:31:05;;;;;;;8.00;7.47;;;;;;;17.05;65.37;92234.69;5110653;28;20212;-69
2022/11/20 08:33:32;;;;;;;8.00;7.20;;;;;;;17.26;66.01;92213.53;5106824;28;20430;-70
2022/11/20 08:36:02;;;;;;;8.30;7.80;;;;;;;17.01;68.59;92206.69;5109824;28;20232;-70
2022/11/20 08:38:27;;;;;;;8.60;8.20;;;;;;;16.90;68.09;92201.03;5110902;28;20209;-70
2022/11/20 08:43:41;;;;;;;9.87;8.67;;;;;;;17.62;67.67;92258.44;5109761;28;20932;-69
2022/11/20 08:46:06;;;;;;;7.70;7.30;;;;;;;17.64;66.95;92250.97;5107951;28;20222;-69
2022/11/20 08:48:31;;;;;;;8.20;7.60;;;;;;;17.32;73.00;92263.09;5111058;28;20188;-69
2022/11/20 08:51:00;;;;;;;8.83;8.00;;;;;;;16.82;74.63;92252.00;5108463;28;20224;-69
2022/11/20 08:53:26;;;;;;;9.93;7.33;;;;;;;17.17;76.73;92257.69;5108796;28;20208;-69
2022/11/20 08:55:51;;;;;;;8.43;8.00;;;;;;;16.62;80.31;92263.34;5101434;28;20276;-71
2022/11/20 08:58:17;;;;;;;8.80;8.23;;;;;;;16.35;78.73;92248.03;5096621;28;20696;-69
2022/11/20 09:00:43;;;;;;;10.53;9.70;;;;;;;16.30;79.56;92221.09;5088893;28;20371;-68
2022/11/20 09:03:08;;;;;;;9.70;9.13;;;;;;;16.28;84.39;92231.97;5091024;28;20181;-69
2022/11/20 09:05:33;;;;;;;9.27;8.47;;;;;;;16.32;84.48;92247.91;5089301;28;20231;-68
2022/11/20 09:07:59;;;;;;;10.03;9.27;;;;;;;16.27;86.00;92253.34;5090304;28;20181;-69
2022/11/20 09:10:28;;;;;;;10.87;10.00;;;;;;;15.75;90.63;92239.78;5097977;28;20215;-68
2022/11/20 09:12:55;;;;;;;10.03;9.13;;;;;;;15.64;94.00;92243.84;5126541;28;20993;-68
2022/11/20 09:15:20;;;;;;;10.10;9.40;;;;;;;15.15;100.00;92249.75;5108931;28;20246;-68
2022/11/20 09:17:52;;;;;;;8.23;7.80;;;;;;;15.25;100.00;92236.25;5109852;28;20235;-68
2022/11/20 09:20:18;;;;;;;11.03;9.90;;;;;;;15.25;98.90;92246.78;5108369;28;20219;-68
2022/11/20 09:22:43;;;;;;;9.07;8.57;;;;;;;15.54;100.00;92254.72;5109159;28;20176;-69
2022/11/20 09:25:08;;;;;;;9.77;9.13;;;;;;;15.45;100.00;92254.00;5107677;28;21105;-68
2022/11/20 09:27:35;;;;;;;10.17;9.47;;;;;;;15.55;100.00;92214.16;5107643;28;20670;-70
2022/11/20 09:30:00;;;;;;;10.77;10.13;;;;;;;16.01;99.89;92238.53;5105152;28;20245;-68
2022/11/20 09:32:26;;;;;;;11.20;10.00;;;;;;;16.18;100.00;92221.81;5110319;28;20203;-69
2022/11/20 09:34:51;;;;;;;8.93;8.53;;;;;;;16.39;95.64;92241.00;5108550;28;20227;-68
2022/11/20 09:37:16;;;;;;;8.80;8.27;;;;;;;16.63;93.83;92222.72;5110005;28;20729;-68
2022/11/20 09:39:43;;;;;;;9.00;8.03;;;;;;;16.71;96.28;92224.50;5107472;28;20243;-68
2022/11/20 09:42:44;;;;;;;9.37;8.87;;;;;;;16.76;93.54;92221.63;5109916;28;20270;-69
2022/11/20 09:45:21;;;;;;;9.30;8.80;;;;;;;16.27;99.37;92227.78;5108448;28;20987;-69
2022/11/20 09:47:54;;;;;;;9.97;9.20;;;;;;;16.46;100.00;92217.59;5109097;28;20196;-68
2022/11/20 09:50:31;;;;;;;9.83;9.03;;;;;;;16.27;98.49;92198.03;5109456;28;20220;-70
2022/11/20 09:52:56;;;;;;;10.73;9.77;;;;;;;16.65;94.60;92217.91;5108726;28;20188;-68
2022/11/20 09:55:21;;;;;;;9.37;8.73;;;;;;;16.82;91.40;92198.50;5099050;28;20232;-70
2022/11/20 09:57:50;;;;;;;8.63;8.10;;;;;;;17.03;91.57;92210.50;5088337;28;20220;-70
2022/11/20 10:00:17;;;;;;;9.97;9.30;;;;;;;16.48;87.17;92210.16;5098599;28;20250;-70
2022/11/20 10:02:59;;;;;;;10.23;9.30;;;;;;;16.73;89.65;92193.28;5108882;28;20192;-69
2022/11/20 10:05:37;;;;;;;11.10;10.10;;;;;;;17.13;92.83;92204.06;5106408;28;20224;-70
2022/11/20 10:08:29;;;;;;;11.30;10.33;;;;;;;16.66;94.58;92190.44;5110610;28;20263;-69
2022/11/20 10:11:04;;;;;;;10.50;9.70;;;;;;;16.88;90.36;92197.19;5090165;28;20227;-72
2022/11/20 10:13:39;;;;;;;10.67;9.87;;;;;;;17.18;91.48;92190.66;5088777;28;21182;-71
2022/11/20 10:16:35;;;;;;;11.63;10.70;;;;;;;16.95;92.30;92192.91;5104301;28;20235;-70
2022/11/20 10:19:27;;;;;;;11.17;10.20;;;;;;;17.69;88.06;92205.88;5106800;28;20204;-71
2022/11/20 10:22:04;;;;;;;10.37;9.57;;;;;;;17.39;86.47;92180.75;5104623;28;20204;-72
2022/11/20 10:24:52;;;;;;;11.00;10.30;;;;;;;17.36;84.44;92192.75;5105795;28;20242;-71
2022/11/20 10:27:32;;;;;;;10.37;9.67;;;;;;;16.77;90.17;92175.75;5108168;28;20200;-73
2022/11/20 10:30:08;;;;;;;10.17;9.40;;;;;;;16.64;93.62;92197.88;5105246;28;20242;-71
2022/11/20 10:32:39;;;;;;;9.97;9.17;;;;;;;17.03;88.58;92181.50;5105865;28;20261;-71
2022/11/20 10:35:33;;;;;;;9.77;9.13;;;;;;;16.60;84.73;92183.84;5106122;28;20220;-71
2022/11/20 10:38:03;;;;;;;9.87;9.17;;;;;;;17.00;83.65;92190.06;5104443;28;20192;-71
2022/11/20 10:40:34;;;;;;;9.97;9.17;;;;;;;17.36;87.67;92198.03;5103550;28;20255;-71
2022/11/20 10:43:07;;;;;;;10.73;9.63;;;;;;;17.53;84.86;92205.75;5107918;28;20220;-72
2022/11/20 10:45:44;;;;;;;14.13;12.57;;;;;;;17.37;83.25;92189.00;5107212;28;20258;-72
2022/11/20 10:48:12;;;;;;;19.37;13.90;;;;;;;17.22;83.79;92197.56;5105553;28;20191;-71
2022/11/20 10:50:43;;;;;;;18.73;13.87;;;;;;;16.54;93.07;92203.56;5107229;28;20297;-72
2022/11/20 10:53:50;;;;;;;19.67;14.83;;;;;;;16.85;89.22;92232.13;5106174;28;20199;-72
2022/11/20 10:56:34;;;;;;;12.80;11.50;;;;;;;16.29;92.84;92233.50;5072441;28;20283;-72
2022/11/20 10:59:32;;;;;;;12.17;10.10;;;;;;;16.45;90.02;92231.84;5107845;28;20236;-72
2022/11/20 11:01:57;;;;;;;11.57;10.63;;;;;;;16.38;90.91;92226.31;5106071;28;20223;-72
2022/11/20 11:04:32;;;;;;;11.67;10.23;;;;;;;16.24;92.96;92230.28;5104854;28;20211;-72
2022/11/20 11:07:10;;;;;;;11.53;10.43;;;;;;;15.97;94.71;92239.47;5107735;28;20184;-72
2022/11/20 11:09:42;;;;;;;9.83;8.93;;;;;;;15.09;100.00;92264.94;5106995;28;20231;-72
2022/11/20 11:12:09;;;;;;;11.90;10.93;;;;;;;14.63;100.00;92288.50;5107324;28;20251;-71
2022/11/20 11:14:54;;;;;;;12.00;10.80;;;;;;;14.61;100.00;92280.16;5106445;28;20295;-71
2022/11/20 11:17:21;;;;;;;9.97;8.77;;;;;;;14.30;99.13;92272.44;5106355;28;20240;-71
2022/11/20 11:20:17;;;;;;;10.37;9.40;;;;;;;14.15;100.00;92287.84;5107496;28;20235;-72
2022/11/20 11:22:49;;;;;;;8.43;7.93;;;;;;;13.94;95.15;92286.88;5108601;28;20179;-72
2022/11/20 11:25:25;;;;;;;8.83;8.33;;;;;;;13.86;98.97;92241.19;5109887;28;20220;-72
2022/11/20 11:27:52;;;;;;;9.27;8.73;;;;;;;13.42;99.49;92237.97;5111144;28;20206;-72
2022/11/20 11:30:19;;;;;;;9.73;9.23;;;;;;;13.34;100.00;92247.38;5106899;28;20200;-72
2022/11/20 11:32:46;;;;;;;8.07;7.77;;;;;;;13.02;99.58;92260.03;5110195;28;20764;-72
2022/11/20 11:35:27;;;;;;;8.30;7.90;;;;;;;12.88;100.00;92252.25;5111087;28;20249;-71
2022/11/20 11:38:01;;;;;;;9.83;9.23;;;;;;;12.72;100.00;92232.72;5109552;28;20243;-73
2022/11/20 11:40:30;;;;;;;8.20;7.80;;;;;;;12.47;97.51;92223.66;5110995;28;20215;-71
2022/11/20 11:43:04;;;;;;;8.93;8.53;;;;;;;12.44;99.00;92239.97;5111510;28;20251;-71
2022/11/20 11:45:29;;;;;;;9.67;9.27;;;;;;;12.25;97.61;92217.66;5110803;28;20223;-71
2022/11/20 11:47:58;;;;;;;9.43;9.03;;;;;;;12.39;98.25;92227.00;5112965;28;20215;-71